Time;durP1;ratioP1;P1;durP2;ratioP2;P2;SDS_P1;SDS_P2;PMS_P1;PMS_P2;Temp;Humidity;BMP_temperature;BMP_pressure;BME280_temperature;BME280_humidity;BME280_pressure;Samples;Min_cycle;Max_cycle;Signal;HPM_P1;HPM_P2
2021/06/06 00:00:32;;;;;;;45.40;31.33;;;20.30;99.90;;;;;;5007771;28;20472;-72
2021/06/06 00:02:58;;;;;;;48.13;30.25;;;20.30;99.90;;;;;;5013303;28;20030;-70
2021/06/06 00:05:55;;;;;;;47.67;30.35;;;20.30;99.90;;;;;;5013119;28;20057;-70
2021/06/06 00:08:21;;;;;;;48.03;30.10;;;20.30;99.90;;;;;;5011568;28;20033;-71
2021/06/06 00:10:47;;;;;;;53.60;32.95;;;20.30;99.90;;;;;;5013248;28;20078;-71
2021/06/06 00:13:13;;;;;;;47.80;30.75;;;20.30;99.90;;;;;;5013190;28;20399;-73
2021/06/06 00:15:39;;;;;;;46.97;31.55;;;20.20;99.90;;;;;;5012925;28;20081;-72
2021/06/06 00:18:06;;;;;;;49.80;32.42;;;20.30;99.90;;;;;;5014277;28;20105;-72
2021/06/06 00:20:31;;;;;;;53.70;33.03;;;20.20;99.90;;;;;;5012813;28;20046;-73
2021/06/06 00:22:57;;;;;;;53.88;33.08;;;20.20;99.90;;;;;;5012820;28;20057;-72
2021/06/06 00:25:24;;;;;;;58.85;34.47;;;20.20;99.90;;;;;;5011461;28;20033;-72
2021/06/06 00:27:50;;;;;;;52.03;31.75;;;20.10;99.90;;;;;;5012421;28;20100;-71
2021/06/06 00:30:17;;;;;;;50.80;34.67;;;20.10;99.90;;;;;;5014002;28;20026;-71
2021/06/06 00:32:43;;;;;;;54.50;33.58;;;20.10;99.90;;;;;;5012491;28;20129;-72
2021/06/06 00:35:12;;;;;;;60.03;36.22;;;20.10;99.90;;;;;;5012268;28;20037;-70
2021/06/06 00:37:38;;;;;;;60.95;35.60;;;20.20;99.90;;;;;;5012305;28;20104;-72
2021/06/06 00:40:06;;;;;;;59.60;35.00;;;20.30;99.90;;;;;;5012455;28;20376;-72
2021/06/06 00:42:31;;;;;;;66.68;36.40;;;20.10;99.90;;;;;;5012117;28;20033;-71
2021/06/06 00:44:57;;;;;;;59.90;36.67;;;20.20;99.90;;;;;;5012710;28;20053;-70
2021/06/06 00:47:25;;;;;;;61.97;36.60;;;20.20;99.90;;;;;;5012480;28;20061;-72
2021/06/06 00:49:51;;;;;;;61.95;38.65;;;20.20;99.90;;;;;;5011328;28;20068;-71
2021/06/06 00:52:17;;;;;;;65.07;38.55;;;20.10;99.90;;;;;;5011858;28;20037;-69
2021/06/06 00:54:46;;;;;;;64.68;39.00;;;20.10;99.90;;;;;;5010681;28;20029;-71
2021/06/06 00:57:19;;;;;;;70.45;40.90;;;20.10;99.90;;;;;;5013708;28;20492;-72
2021/06/06 00:59:50;;;;;;;75.85;42.63;;;20.10;99.90;;;;;;5012364;28;20649;-71
2021/06/06 01:02:16;;;;;;;77.75;42.38;;;20.10;99.90;;;;;;5012117;28;20129;-72
2021/06/06 01:04:43;;;;;;;74.22;42.85;;;20.10;99.90;;;;;;5011875;28;20121;-72
2021/06/06 01:07:09;;;;;;;74.00;40.90;;;20.20;99.90;;;;;;5011949;28;20056;-71
2021/06/06 01:09:35;;;;;;;72.32;41.10;;;20.20;99.90;;;;;;5011912;28;20036;-73
2021/06/06 01:12:21;;;;;;;76.68;43.42;;;20.20;99.90;;;;;;5013325;28;20033;-71
2021/06/06 01:15:11;;;;;;;78.07;44.72;;;20.10;99.90;;;;;;5010879;28;20310;-71
2021/06/06 01:17:37;;;;;;;76.43;42.92;;;20.00;99.90;;;;;;5011542;28;20535;-71
2021/06/06 01:20:09;;;;;;;76.30;45.17;;;20.00;99.90;;;;;;5011525;28;20118;-71
2021/06/06 01:22:58;;;;;;;77.32;43.80;;;20.00;99.90;;;;;;5011621;28;20068;-72
2021/06/06 01:25:28;;;;;;;83.25;46.28;;;20.00;99.90;;;;;;5011640;28;20048;-71
2021/06/06 01:28:02;;;;;;;83.15;44.97;;;20.00;99.90;;;;;;5011414;28;20388;-71
2021/06/06 01:30:32;;;;;;;79.68;44.65;;;19.80;99.90;;;;;;5011391;28;20026;-71
2021/06/06 01:33:13;;;;;;;81.80;45.58;;;19.90;99.90;;;;;;5012992;28;20105;-72
2021/06/06 01:35:43;;;;;;;76.20;44.95;;;19.90;99.90;;;;;;5003734;28;20062;-70
2021/06/06 01:38:23;;;;;;;84.03;45.42;;;19.90;99.90;;;;;;4990549;28;20123;-71
2021/06/06 01:40:55;;;;;;;80.93;44.92;;;19.80;99.90;;;;;;4991781;28;20053;-71
2021/06/06 01:43:30;;;;;;;78.10;44.70;;;19.80;99.90;;;;;;4983527;28;20066;-72
2021/06/06 01:46:03;;;;;;;83.88;46.35;;;19.80;99.90;;;;;;4977504;28;20042;-71
2021/06/06 01:48:30;;;;;;;84.90;47.22;;;19.70;99.90;;;;;;4991786;28;20105;-71
2021/06/06 01:51:21;;;;;;;84.30;46.92;;;19.70;99.90;;;;;;4993055;28;20019;-72
2021/06/06 01:53:48;;;;;;;78.53;46.35;;;19.70;99.90;;;;;;4988881;28;20456;-71
2021/06/06 01:56:24;;;;;;;88.67;48.53;;;19.60;99.90;;;;;;4991363;28;20047;-71
2021/06/06 01:58:58;;;;;;;80.72;46.38;;;19.70;99.90;;;;;;4991011;28;20053;-71
2021/06/06 02:01:25;;;;;;;82.88;47.22;;;19.70;99.90;;;;;;4991137;28;20464;-71
2021/06/06 02:03:54;;;;;;;83.22;46.33;;;19.70;99.90;;;;;;4991145;28;20034;-71
2021/06/06 02:06:23;;;;;;;84.70;46.78;;;19.60;99.90;;;;;;4990971;28;20038;-73
2021/06/06 02:08:49;;;;;;;85.45;45.83;;;19.60;99.90;;;;;;4992624;28;20030;-71
2021/06/06 02:11:40;;;;;;;85.10;48.95;;;19.70;99.90;;;;;;4991073;28;20034;-72
2021/06/06 02:14:13;;;;;;;90.43;48.78;;;19.70;99.90;;;;;;4988222;28;20137;-72
2021/06/06 02:16:49;;;;;;;85.15;48.58;;;19.60;99.90;;;;;;4990686;28;20046;-71
2021/06/06 02:19:16;;;;;;;89.63;49.50;;;19.70;99.90;;;;;;4989829;28;20425;-70
2021/06/06 02:21:42;;;;;;;84.00;47.60;;;19.70;99.90;;;;;;4990873;28;20061;-71
2021/06/06 02:24:08;;;;;;;85.68;48.38;;;19.70;99.90;;;;;;4992336;28;20062;-71
2021/06/06 02:27:03;;;;;;;93.38;49.58;;;19.50;99.90;;;;;;4990629;28;20054;-72
2021/06/06 02:29:47;;;;;;;83.78;46.90;;;19.50;99.90;;;;;;4990189;28;20048;-72
2021/06/06 02:32:43;;;;;;;81.22;46.00;;;19.50;99.90;;;;;;4990541;28;20035;-70
2021/06/06 02:35:24;;;;;;;81.15;44.92;;;19.30;99.90;;;;;;4991082;28;20185;-72
2021/06/06 02:38:06;;;;;;;74.68;42.42;;;19.40;99.90;;;;;;4990994;28;20041;-72
2021/06/06 02:40:57;;;;;;;75.03;43.38;;;19.40;99.90;;;;;;4990465;28;20046;-72
2021/06/06 02:43:28;;;;;;;82.57;44.17;;;19.50;99.90;;;;;;4987193;28;20065;-72
2021/06/06 02:45:57;;;;;;;73.63;43.40;;;19.50;99.90;;;;;;4990618;28;20165;-71
2021/06/06 02:48:52;;;;;;;77.05;45.08;;;19.60;99.90;;;;;;4990480;28;20026;-71
2021/06/06 02:51:22;;;;;;;84.05;45.08;;;19.60;99.90;;;;;;4991235;28;20041;-72
2021/06/06 02:53:57;;;;;;;75.32;44.25;;;19.60;99.90;;;;;;4990666;28;20152;-71
2021/06/06 02:56:26;;;;;;;84.63;45.25;;;19.50;99.90;;;;;;4990201;28;20042;-72
2021/06/06 02:59:11;;;;;;;81.45;43.47;;;19.60;99.90;;;;;;4989211;28;20041;-72
2021/06/06 03:01:43;;;;;;;80.28;44.90;;;19.60;99.90;;;;;;4990011;28;20054;-72
2021/06/06 03:04:12;;;;;;;87.45;46.25;;;19.60;99.90;;;;;;4983512;28;20101;-71
2021/06/06 03:06:42;;;;;;;91.38;48.75;;;19.70;99.90;;;;;;4988275;28;20334;-71
2021/06/06 03:09:10;;;;;;;92.10;48.67;;;19.50;99.90;;;;;;4991702;28;20042;-71
2021/06/06 03:11:41;;;;;;;89.53;47.47;;;19.60;99.90;;;;;;4989325;28;20034;-71
2021/06/06 03:14:10;;;;;;;91.75;48.85;;;19.40;99.90;;;;;;4990036;28;20030;-72
2021/06/06 03:16:38;;;;;;;87.70;47.42;;;19.30;99.90;;;;;;4990270;28;20104;-71
2021/06/06 03:19:06;;;;;;;87.47;47.28;;;19.40;99.90;;;;;;4990504;28;20038;-71
2021/06/06 03:21:39;;;;;;;80.63;45.92;;;19.40;99.90;;;;;;4990193;28;20031;-71
2021/06/06 03:24:14;;;;;;;85.78;46.70;;;19.50;99.90;;;;;;4991583;28;20037;-71
2021/06/06 03:26:41;;;;;;;78.53;44.90;;;19.40;99.90;;;;;;4990121;28;20512;-71
2021/06/06 03:29:10;;;;;;;81.53;45.55;;;19.40;99.90;;;;;;4989963;28;20042;-71
2021/06/06 03:32:06;;;;;;;81.18;43.67;;;19.40;99.90;;;;;;4989982;28;20162;-72
2021/06/06 03:34:32;;;;;;;83.63;47.33;;;19.50;99.90;;;;;;4989578;28;20046;-71
2021/06/06 03:36:58;;;;;;;74.40;40.97;;;19.30;99.90;;;;;;4990650;28;20082;-70
2021/06/06 03:39:28;;;;;;;63.05;38.92;;;19.20;99.90;;;;;;4993907;28;20038;-72
2021/06/06 03:41:56;;;;;;;58.40;35.72;;;19.20;99.90;;;;;;4995448;28;20030;-72
2021/06/06 03:44:22;;;;;;;56.78;35.65;;;19.30;99.90;;;;;;4993811;28;20053;-72
2021/06/06 03:46:48;;;;;;;52.22;33.67;;;19.20;99.90;;;;;;4993933;28;20045;-71
2021/06/06 03:49:15;;;;;;;53.80;33.67;;;19.30;99.90;;;;;;4993803;28;20113;-72
2021/06/06 03:51:40;;;;;;;52.40;32.90;;;19.10;99.90;;;;;;4993618;28;20049;-72
2021/06/06 03:54:10;;;;;;;53.15;32.17;;;19.20;99.90;;;;;;4994895;28;20018;-72
2021/06/06 03:56:41;;;;;;;44.20;30.13;;;19.20;99.90;;;;;;4994053;28;20069;-72
2021/06/06 03:59:07;;;;;;;50.35;31.35;;;19.20;99.90;;;;;;4993506;28;20042;-71
2021/06/06 04:01:33;;;;;;;46.88;30.95;;;19.20;99.90;;;;;;4993366;28;20035;-72
2021/06/06 04:03:59;;;;;;;47.78;29.73;;;19.10;99.90;;;;;;4987841;28;20480;-72
2021/06/06 04:06:25;;;;;;;54.65;33.60;;;19.00;99.90;;;;;;4989388;28;20027;-70
2021/06/06 04:08:51;;;;;;;56.35;33.40;;;18.90;99.90;;;;;;4975556;28;20122;-71
2021/06/06 04:11:18;;;;;;;57.28;35.85;;;18.90;99.90;;;;;;4989799;28;20457;-72
2021/06/06 04:13:44;;;;;;;60.13;36.20;;;18.90;99.90;;;;;;4993267;28;20038;-71
2021/06/06 04:16:10;;;;;;;58.17;35.75;;;18.90;99.90;;;;;;4993223;28;20052;-71
2021/06/06 04:18:36;;;;;;;60.90;37.53;;;18.90;99.90;;;;;;4991035;28;20037;-71
2021/06/06 04:21:06;;;;;;;62.10;35.50;;;18.90;99.90;;;;;;4975110;28;20027;-71
2021/06/06 04:23:32;;;;;;;68.53;39.40;;;18.80;99.90;;;;;;4991210;28;20109;-71
2021/06/06 04:25:59;;;;;;;70.53;39.85;;;18.80;99.90;;;;;;4993184;28;20041;-71
2021/06/06 04:28:25;;;;;;;64.75;38.00;;;18.80;99.90;;;;;;4992009;28;20034;-71
2021/06/06 04:30:51;;;;;;;67.85;39.90;;;18.80;99.90;;;;;;4992799;28;20093;-72
2021/06/06 04:33:17;;;;;;;70.47;40.00;;;18.70;99.90;;;;;;4994321;28;20046;-71
2021/06/06 04:35:44;;;;;;;66.82;39.25;;;18.80;99.90;;;;;;4993165;28;20077;-72
2021/06/06 04:38:13;;;;;;;62.03;38.25;;;18.70;99.90;;;;;;4992726;28;20027;-72
2021/06/06 04:40:39;;;;;;;71.70;41.00;;;18.70;99.90;;;;;;4991445;28;20208;-72
2021/06/06 04:43:06;;;;;;;69.55;39.05;;;18.80;99.90;;;;;;4986284;28;20138;-73
2021/06/06 04:45:32;;;;;;;76.00;42.50;;;18.90;99.90;;;;;;4974743;28;20425;-71
2021/06/06 04:48:29;;;;;;;75.05;42.60;;;18.70;99.90;;;;;;4994085;28;20737;-72
2021/06/06 04:51:01;;;;;;;76.30;42.83;;;18.70;99.90;;;;;;4984726;28;20026;-71
2021/06/06 04:53:27;;;;;;;78.50;42.95;;;18.80;99.90;;;;;;4975457;28;20046;-72
2021/06/06 04:55:56;;;;;;;84.57;45.65;;;18.70;99.90;;;;;;5000722;28;20353;-71
2021/06/06 04:58:23;;;;;;;81.85;44.63;;;18.80;99.90;;;;;;4991449;28;20030;-72
2021/06/06 05:00:49;;;;;;;85.57;44.22;;;18.70;99.90;;;;;;4991366;28;20034;-71
2021/06/06 05:03:17;;;;;;;86.07;46.83;;;18.70;99.90;;;;;;4993009;28;20030;-72
2021/06/06 05:05:43;;;;;;;85.43;44.20;;;18.80;99.90;;;;;;4972924;28;20034;-72
2021/06/06 05:08:10;;;;;;;80.13;43.70;;;18.70;99.90;;;;;;4972682;28;20125;-71
2021/06/06 05:10:37;;;;;;;79.40;45.13;;;18.70;99.90;;;;;;4972853;28;20353;-73
2021/06/06 05:13:04;;;;;;;79.10;44.50;;;18.70;99.90;;;;;;4972680;28;20126;-73
2021/06/06 05:15:30;;;;;;;84.07;44.78;;;18.70;99.90;;;;;;4973117;28;20342;-72
2021/06/06 05:17:56;;;;;;;77.53;43.15;;;18.80;99.90;;;;;;4992911;28;20041;-72
2021/06/06 05:20:27;;;;;;;80.47;43.13;;;18.80;99.90;;;;;;4975355;28;20038;-72
2021/06/06 05:22:53;;;;;;;84.13;45.00;;;18.90;99.90;;;;;;4972909;28;20508;-71
2021/06/06 05:25:20;;;;;;;85.78;45.50;;;18.80;99.90;;;;;;4980331;28;20062;-72
2021/06/06 05:27:45;;;;;;;86.30;46.65;;;18.70;99.90;;;;;;4992063;28;20042;-71
2021/06/06 05:30:16;;;;;;;84.72;43.05;;;18.70;99.90;;;;;;4993385;28;20038;-71
2021/06/06 05:32:42;;;;;;;87.60;47.75;;;18.60;99.90;;;;;;4973117;28;20039;-71
2021/06/06 05:35:08;;;;;;;87.47;47.33;;;18.70;99.90;;;;;;4972656;28;20129;-72
2021/06/06 05:37:34;;;;;;;84.05;45.10;;;18.70;99.90;;;;;;4972401;28;20042;-73
2021/06/06 05:40:01;;;;;;;73.97;41.17;;;18.60;99.90;;;;;;4977997;28;20468;-73
2021/06/06 05:42:26;;;;;;;73.10;40.53;;;18.60;99.90;;;;;;4991648;28;20076;-73
2021/06/06 05:44:52;;;;;;;70.40;39.28;;;18.60;99.90;;;;;;4993264;28;20069;-73
2021/06/06 05:47:18;;;;;;;74.70;39.30;;;18.50;99.90;;;;;;4990720;28;20111;-73
2021/06/06 05:49:43;;;;;;;59.55;34.05;;;18.60;99.90;;;;;;4980342;28;20038;-72
2021/06/06 05:52:09;;;;;;;59.85;33.63;;;18.50;99.90;;;;;;4993609;28;20045;-72
2021/06/06 05:54:34;;;;;;;56.50;31.92;;;18.60;99.90;;;;;;4989418;28;20027;-72
2021/06/06 05:57:00;;;;;;;53.10;29.70;;;18.60;99.90;;;;;;4972204;28;20031;-73
2021/06/06 05:59:26;;;;;;;45.85;27.58;;;18.60;99.90;;;;;;5006536;28;20113;-72
2021/06/06 06:01:51;;;;;;;44.67;28.27;;;18.50;99.90;;;;;;5010905;28;20507;-72
2021/06/06 06:04:17;;;;;;;47.60;29.77;;;18.50;99.90;;;;;;5011147;28;20076;-77
2021/06/06 06:06:43;;;;;;;49.55;28.77;;;18.50;99.90;;;;;;5010588;28;20029;-73
2021/06/06 06:09:08;;;;;;;52.80;30.40;;;18.60;99.90;;;;;;5011563;28;20508;-73
2021/06/06 06:11:34;;;;;;;52.90;28.45;;;18.70;99.90;;;;;;5011088;28;20046;-73
2021/06/06 06:14:00;;;;;;;47.80;30.27;;;18.80;99.90;;;;;;5010547;28;20046;-74
2021/06/06 06:16:33;;;;;;;57.17;30.70;;;18.60;99.90;;;;;;5010740;28;20117;-74
2021/06/06 06:19:01;;;;;;;48.97;28.80;;;18.60;99.90;;;;;;5009589;28;20404;-74
2021/06/06 06:21:32;;;;;;;48.60;28.30;;;18.50;99.90;;;;;;5010944;28;20032;-72
2021/06/06 06:23:58;;;;;;;47.97;27.02;;;18.60;99.90;;;;;;5012284;28;20460;-74
2021/06/06 06:26:24;;;;;;;47.75;28.45;;;18.70;99.90;;;;;;5010429;28;20242;-73
2021/06/06 06:28:50;;;;;;;47.00;26.17;;;18.60;99.90;;;;;;5010470;28;20029;-74
2021/06/06 06:31:17;;;;;;;48.50;26.02;;;18.60;99.90;;;;;;5010857;28;20117;-74
2021/06/06 06:33:43;;;;;;;43.90;26.73;;;18.70;99.90;;;;;;5010742;28;20659;-76
2021/06/06 06:36:10;;;;;;;44.47;27.00;;;18.60;99.90;;;;;;5012120;28;20310;-75
2021/06/06 06:38:36;;;;;;;49.60;27.13;;;18.70;99.90;;;;;;5010455;28;20050;-76
2021/06/06 06:41:03;;;;;;;54.60;28.40;;;18.60;99.90;;;;;;5008841;28;20030;-75
2021/06/06 06:43:29;;;;;;;48.97;26.95;;;18.50;99.90;;;;;;5009659;28;20057;-76
2021/06/06 06:45:55;;;;;;;45.38;26.70;;;18.60;99.90;;;;;;5010338;28;20040;-75
2021/06/06 06:48:23;;;;;;;41.50;24.52;;;18.70;99.90;;;;;;5010528;28;20018;-75
2021/06/06 06:50:50;;;;;;;42.28;25.00;;;18.80;99.90;;;;;;5011899;28;20024;-75
2021/06/06 06:53:18;;;;;;;42.13;23.63;;;18.80;99.90;;;;;;5009076;28;20068;-74
2021/06/06 06:55:44;;;;;;;43.33;24.05;;;18.80;99.90;;;;;;5010140;28;20391;-74
2021/06/06 06:58:10;;;;;;;34.53;21.90;;;19.00;99.90;;;;;;5009819;28;20479;-74
2021/06/06 07:00:41;;;;;;;39.20;22.13;;;18.90;99.90;;;;;;5008924;28;20079;-74
2021/06/06 07:03:09;;;;;;;32.80;20.80;;;19.10;99.90;;;;;;5011879;28;20058;-76
2021/06/06 07:05:35;;;;;;;38.53;21.92;;;19.10;99.90;;;;;;5010041;28;20418;-75
2021/06/06 07:08:01;;;;;;;32.97;19.75;;;19.10;99.90;;;;;;5010143;28;20026;-75
2021/06/06 07:10:33;;;;;;;32.92;20.10;;;19.20;99.90;;;;;;5009040;28;20038;-76
2021/06/06 07:12:59;;;;;;;34.38;20.95;;;19.20;99.90;;;;;;5008775;28;20070;-75
2021/06/06 07:15:25;;;;;;;31.05;20.63;;;19.10;99.90;;;;;;5009964;28;20105;-75
2021/06/06 07:17:51;;;;;;;36.35;21.20;;;19.10;99.90;;;;;;5011638;28;20106;-75
2021/06/06 07:20:24;;;;;;;31.85;18.83;;;19.20;99.90;;;;;;5009941;28;20747;-78
2021/06/06 07:22:50;;;;;;;30.23;18.77;;;19.10;99.90;;;;;;5009657;28;20064;-76
2021/06/06 07:25:17;;;;;;;30.35;19.05;;;19.20;99.90;;;;;;5009938;28;20472;-76
2021/06/06 07:27:44;;;;;;;29.85;19.10;;;19.20;99.90;;;;;;5009479;28;20041;-74
2021/06/06 07:30:17;;;;;;;29.55;18.90;;;19.20;99.90;;;;;;5011411;28;20519;-75
2021/06/06 07:32:42;;;;;;;28.15;19.00;;;19.10;99.90;;;;;;5010245;28;20053;-77
2021/06/06 07:35:10;;;;;;;25.90;17.50;;;19.20;99.90;;;;;;5009660;28;20034;-75
2021/06/06 07:37:36;;;;;;;27.85;19.00;;;19.30;99.90;;;;;;5009916;28;20539;-74
2021/06/06 07:40:05;;;;;;;26.20;17.65;;;19.20;99.90;;;;;;5009865;28;20034;-73
2021/06/06 07:42:32;;;;;;;28.75;17.05;;;19.20;99.90;;;;;;5008219;28;20356;-74
2021/06/06 07:44:57;;;;;;;22.73;15.00;;;19.30;99.90;;;;;;5026574;28;20041;-75
2021/06/06 07:47:23;;;;;;;23.65;15.43;;;19.30;99.90;;;;;;5010185;28;20364;-73
2021/06/06 07:49:48;;;;;;;25.35;15.57;;;19.30;99.90;;;;;;5009922;28;20038;-75
2021/06/06 07:52:14;;;;;;;24.25;16.13;;;19.20;99.90;;;;;;5008146;28;20034;-75
2021/06/06 07:54:39;;;;;;;25.08;17.17;;;19.20;99.90;;;;;;5007955;28;20369;-74
2021/06/06 07:57:05;;;;;;;26.50;17.42;;;19.20;99.90;;;;;;5010989;28;20033;-75
2021/06/06 07:59:33;;;;;;;27.00;15.13;;;19.20;99.90;;;;;;5009519;28;20040;-73
2021/06/06 08:01:59;;;;;;;27.83;15.90;;;19.30;99.90;;;;;;5009183;28;20056;-73
2021/06/06 08:04:25;;;;;;;23.83;15.68;;;19.30;99.90;;;;;;5009316;28;20030;-76
2021/06/06 08:06:52;;;;;;;28.85;15.38;;;19.30;99.90;;;;;;5009617;28;20042;-74
2021/06/06 08:09:18;;;;;;;26.73;17.33;;;19.30;99.90;;;;;;5009934;28;20026;-75
2021/06/06 08:11:43;;;;;;;26.10;16.17;;;19.20;99.90;;;;;;5008963;28;20116;-73
2021/06/06 08:14:09;;;;;;;24.55;15.50;;;19.20;99.90;;;;;;5009360;28;20038;-73
2021/06/06 08:16:35;;;;;;;23.80;15.82;;;19.20;99.90;;;;;;5009215;28;20467;-74
2021/06/06 08:19:02;;;;;;;21.73;15.52;;;19.30;99.90;;;;;;5008942;28;20049;-74
2021/06/06 08:21:41;;;;;;;28.33;15.63;;;19.40;99.90;;;;;;5009006;28;20045;-73
2021/06/06 08:24:08;;;;;;;21.25;14.55;;;19.30;99.90;;;;;;5013403;28;20025;-75
2021/06/06 08:26:35;;;;;;;22.83;16.40;;;19.30;99.90;;;;;;5012745;28;20038;-73
2021/06/06 08:29:01;;;;;;;26.95;18.75;;;19.20;99.90;;;;;;5012816;28;20034;-72
2021/06/06 08:31:30;;;;;;;31.58;19.50;;;19.30;99.90;;;;;;5013253;28;20065;-73
2021/06/06 08:33:57;;;;;;;27.83;19.30;;;19.30;99.90;;;;;;5012714;28;20038;-72
2021/06/06 08:36:25;;;;;;;27.02;17.73;;;19.30;99.90;;;;;;5011564;28;20367;-71
2021/06/06 08:38:53;;;;;;;34.50;21.10;;;19.30;99.90;;;;;;5014308;28;20021;-71
2021/06/06 08:41:22;;;;;;;27.42;19.50;;;19.40;99.90;;;;;;5012185;28;20308;-70
2021/06/06 08:43:55;;;;;;;28.38;18.80;;;19.30;99.90;;;;;;5012375;28;20203;-72
2021/06/06 08:46:23;;;;;;;28.95;19.38;;;19.20;99.90;;;;;;5012674;28;20052;-72
2021/06/06 08:48:50;;;;;;;32.03;19.13;;;19.30;99.90;;;;;;5012818;28;20029;-72
2021/06/06 08:51:41;;;;;;;30.58;18.38;;;19.30;99.90;;;;;;5014050;28;20456;-72
2021/06/06 08:54:35;;;;;;;32.35;19.00;;;19.30;99.90;;;;;;5012711;28;20042;-72
2021/06/06 08:57:15;;;;;;;28.13;18.48;;;19.40;99.90;;;;;;5012232;28;20038;-70
2021/06/06 08:59:46;;;;;;;27.35;16.92;;;19.60;99.90;;;;;;5012143;28;20092;-71
2021/06/06 09:02:31;;;;;;;28.10;15.95;;;19.70;99.90;;;;;;5011212;28;20112;-71
2021/06/06 09:04:57;;;;;;;23.80;15.50;;;19.70;99.90;;;;;;5010968;28;20046;-71
2021/06/06 09:07:44;;;;;;;25.95;16.33;;;19.80;99.90;;;;;;5012277;28;20040;-71
2021/06/06 09:10:20;;;;;;;24.70;15.48;;;19.80;99.90;;;;;;5011620;28;20102;-70
2021/06/06 09:12:46;;;;;;;19.27;13.25;;;20.00;99.90;;;;;;5011642;28;20603;-71
2021/06/06 09:15:15;;;;;;;18.60;13.70;;;20.20;99.90;;;;;;5012294;28;20116;-71
2021/06/06 09:17:47;;;;;;;20.77;14.73;;;20.30;99.90;;;;;;5011887;28;20065;-71
2021/06/06 09:20:36;;;;;;;20.88;13.25;;;20.30;99.90;;;;;;5010722;28;20049;-71
2021/06/06 09:23:34;;;;;;;17.23;12.30;;;20.40;99.90;;;;;;5011891;28;20153;-70
2021/06/06 09:26:18;;;;;;;15.57;11.75;;;20.50;99.90;;;;;;4999880;28;20053;-69
2021/06/06 09:28:48;;;;;;;15.00;11.32;;;20.60;99.80;;;;;;5010986;28;20041;-70
2021/06/06 09:31:16;;;;;;;16.90;12.20;;;20.60;99.80;;;;;;5010521;28;20590;-70
2021/06/06 09:33:48;;;;;;;15.10;11.18;;;20.50;99.60;;;;;;5011070;28;20037;-69
2021/06/06 09:36:40;;;;;;;15.35;10.75;;;20.40;99.60;;;;;;5012273;28;20025;-71
2021/06/06 09:39:14;;;;;;;17.08;11.77;;;20.60;99.50;;;;;;5011595;28;20033;-72
2021/06/06 09:41:52;;;;;;;16.98;11.68;;;20.60;99.40;;;;;;5011264;28;20061;-71
2021/06/06 09:44:24;;;;;;;;;;;20.50;99.40;;;;;;5011431;28;20061;-71
2021/06/06 09:46:52;;;;;;;19.23;13.07;;;20.50;99.50;;;;;;5011142;28;19971;-71
2021/06/06 09:49:36;;;;;;;;;;;20.40;99.60;;;;;;5011320;28;20598;-70
2021/06/06 09:52:16;;;;;;;24.08;13.77;;;20.40;99.90;;;;;;5010888;28;20495;-72
2021/06/06 09:54:53;;;;;;;22.10;14.05;;;20.30;99.90;;;;;;5011110;28;20045;-70
2021/06/06 09:57:27;;;;;;;19.52;13.13;;;20.20;99.90;;;;;;5012343;28;20022;-71
2021/06/06 10:00:09;;;;;;;22.15;14.68;;;20.00;99.90;;;;;;5011389;28;20108;-70
2021/06/06 10:02:56;;;;;;;24.27;15.77;;;19.90;99.90;;;;;;5010868;28;20042;-71
2021/06/06 10:05:24;;;;;;;27.70;17.85;;;19.80;99.90;;;;;;5011064;28;20061;-71
2021/06/06 10:08:06;;;;;;;30.45;17.48;;;19.80;99.90;;;;;;5010485;28;20050;-72
2021/06/06 10:10:39;;;;;;;24.77;16.73;;;19.80;99.90;;;;;;5010730;28;20441;-71
2021/06/06 10:13:11;;;;;;;26.20;17.08;;;19.80;99.90;;;;;;5009228;28;20479;-70
2021/06/06 10:15:57;;;;;;;28.02;16.17;;;19.70;99.90;;;;;;5010467;28;20025;-72
2021/06/06 10:18:35;;;;;;;23.27;15.50;;;19.70;99.90;;;;;;5010201;28;20461;-72
2021/06/06 10:21:09;;;;;;;26.05;16.27;;;19.80;99.90;;;;;;5010787;28;20033;-71
2021/06/06 10:23:38;;;;;;;27.45;15.77;;;19.80;99.90;;;;;;5010181;28;20029;-70
2021/06/06 10:26:08;;;;;;;24.15;15.50;;;19.70;99.90;;;;;;5010580;28;20061;-70
2021/06/06 10:28:54;;;;;;;23.92;14.80;;;19.70;99.90;;;;;;5010356;28;20450;-75
2021/06/06 10:31:26;;;;;;;24.52;16.08;;;19.50;99.90;;;;;;5010417;28;20056;-71
2021/06/06 10:33:59;;;;;;;29.05;16.92;;;19.40;99.90;;;;;;5010099;28;20452;-72
2021/06/06 10:36:28;;;;;;;28.73;18.15;;;19.50;99.90;;;;;;5010248;28;20030;-67
2021/06/06 10:38:54;;;;;;;30.67;19.15;;;19.30;99.90;;;;;;5011768;28;20455;-74
2021/06/06 10:41:32;;;;;;;34.17;21.95;;;19.30;99.90;;;;;;5010098;28;20065;-74
2021/06/06 10:44:15;;;;;;;33.55;20.65;;;19.30;99.90;;;;;;5009922;28;20127;-74
2021/06/06 10:46:49;;;;;;;34.65;20.67;;;19.40;99.90;;;;;;5010075;28;20041;-73
2021/06/06 10:49:22;;;;;;;38.53;22.48;;;19.40;99.90;;;;;;5010264;28;20387;-73
2021/06/06 10:52:07;;;;;;;37.85;20.88;;;19.30;99.90;;;;;;5009975;28;20143;-76
2021/06/06 10:54:42;;;;;;;34.65;22.83;;;19.40;99.90;;;;;;5009983;28;20022;-69
2021/06/06 10:57:26;;;;;;;34.30;21.05;;;19.40;99.90;;;;;;5011336;28;20018;-68
2021/06/06 11:00:09;;;;;;;34.75;19.02;;;19.40;99.90;;;;;;5010113;28;20112;-72
2021/06/06 11:02:39;;;;;;;33.67;19.52;;;19.50;99.90;;;;;;5009627;28;20450;-69
2021/06/06 11:05:25;;;;;;;35.00;19.30;;;19.50;99.90;;;;;;5009812;28;20117;-72
2021/06/06 11:07:50;;;;;;;29.40;17.55;;;19.50;99.90;;;;;;5009476;28;20038;-70
2021/06/06 11:10:16;;;;;;;26.98;16.77;;;19.60;99.90;;;;;;5009682;28;20650;-70
2021/06/06 11:12:43;;;;;;;32.65;18.33;;;19.70;99.90;;;;;;5008341;28;20346;-73
2021/06/06 11:15:33;;;;;;;27.45;17.10;;;19.50;99.90;;;;;;5011142;28;20049;-74
2021/06/06 11:18:18;;;;;;;24.63;16.25;;;19.50;99.90;;;;;;5009787;28;20088;-72
2021/06/06 11:20:59;;;;;;;22.42;14.57;;;19.60;99.90;;;;;;5009501;28;20026;-70
2021/06/06 11:23:37;;;;;;;26.05;15.40;;;19.80;99.90;;;;;;5009733;28;20463;-73
2021/06/06 11:26:30;;;;;;;23.10;15.00;;;19.80;99.90;;;;;;5009336;28;20512;-73
2021/06/06 11:29:10;;;;;;;22.63;16.15;;;19.90;99.90;;;;;;5009492;28;20144;-73
2021/06/06 11:31:37;;;;;;;23.73;15.80;;;19.80;99.90;;;;;;5008569;28;20522;-68
2021/06/06 11:34:29;;;;;;;23.25;14.45;;;19.70;99.90;;;;;;5009471;28;20054;-70
2021/06/06 11:37:08;;;;;;;19.25;13.85;;;19.60;99.90;;;;;;5009623;28;20420;-72
2021/06/06 11:39:39;;;;;;;22.65;14.15;;;19.70;99.90;;;;;;5009866;28;20030;-69
2021/06/06 11:42:29;;;;;;;20.40;14.30;;;19.70;99.90;;;;;;5011081;28;20478;-71
2021/06/06 11:44:59;;;;;;;20.90;13.63;;;19.70;99.90;;;;;;5009820;28;20054;-68
2021/06/06 11:47:32;;;;;;;17.52;13.38;;;19.70;99.90;;;;;;5009485;28;20046;-71
2021/06/06 11:50:02;;;;;;;22.20;13.57;;;19.70;99.90;;;;;;5009738;28;20145;-72
2021/06/06 11:52:45;;;;;;;18.95;13.32;;;19.80;99.90;;;;;;5009859;28;20034;-74
2021/06/06 11:55:29;;;;;;;19.80;13.43;;;19.90;99.90;;;;;;5008188;28;20037;-74
2021/06/06 11:57:57;;;;;;;19.48;14.57;;;19.90;99.90;;;;;;5010463;28;20085;-71
2021/06/06 12:00:34;;;;;;;21.02;13.60;;;19.80;99.90;;;;;;5013589;28;20025;-75
2021/06/06 12:03:17;;;;;;;18.92;15.02;;;19.80;99.90;;;;;;5014811;28;20105;-73
2021/06/06 12:06:03;;;;;;;22.27;14.50;;;19.70;99.90;;;;;;5013140;28;20373;-75
2021/06/06 12:08:41;;;;;;;23.20;16.40;;;19.60;99.90;;;;;;5011972;28;20061;-71
2021/06/06 12:11:20;;;;;;;23.02;14.70;;;19.50;99.90;;;;;;5011429;28;20499;-71
2021/06/06 12:13:50;;;;;;;29.75;18.85;;;19.60;99.90;;;;;;5012975;28;20049;-69
2021/06/06 12:16:25;;;;;;;27.52;18.30;;;19.40;99.90;;;;;;5012800;28;20418;-71
2021/06/06 12:19:03;;;;;;;30.10;18.92;;;19.40;99.90;;;;;;5012621;28;20041;-71
2021/06/06 12:21:30;;;;;;;34.22;19.13;;;19.50;99.90;;;;;;5012685;28;20026;-67
2021/06/06 12:24:08;;;;;;;29.00;19.35;;;19.40;99.90;;;;;;5014336;28;20033;-69
2021/06/06 12:26:41;;;;;;;25.15;17.98;;;19.30;99.90;;;;;;5012733;28;20452;-69
2021/06/06 12:29:08;;;;;;;27.40;17.90;;;19.30;99.90;;;;;;5013029;28;20363;-69
2021/06/06 12:31:38;;;;;;;26.50;17.05;;;19.40;99.90;;;;;;5012527;28;20287;-69
2021/06/06 12:34:39;;;;;;;25.55;16.85;;;19.50;99.90;;;;;;5012462;28;20041;-67
2021/06/06 12:37:09;;;;;;;28.02;18.65;;;19.50;99.90;;;;;;5006455;28;20084;-69
2021/06/06 12:39:41;;;;;;;27.20;18.85;;;19.60;99.90;;;;;;5012579;28;20037;-67
2021/06/06 12:42:09;;;;;;;30.35;20.15;;;19.60;99.90;;;;;;5013918;28;20033;-66
2021/06/06 12:44:41;;;;;;;27.63;18.30;;;19.60;99.90;;;;;;5012298;28;20053;-66
2021/06/06 12:47:20;;;;;;;38.45;21.80;;;19.50;99.90;;;;;;5012141;28;20034;-68
2021/06/06 12:49:56;;;;;;;32.90;20.63;;;19.50;99.90;;;;;;5012310;28;20121;-68